createdAt,value
2017-01-01T00:00:56.804Z,52.14
2017-01-01T00:01:56.768Z,52.04
2017-01-01T00:02:56.746Z,51.95
2017-01-01T00:03:56.732Z,52.14
2017-01-01T00:04:56.705Z,52.04
2017-01-01T00:05:56.695Z,52.23
2017-01-01T00:06:56.669Z,52.14
2017-01-01T00:07:56.656Z,52.33
2017-01-01T00:08:56.637Z,52.23
2017-01-01T00:09:56.620Z,51.95
2017-01-01T00:10:56.610Z,51.67
2017-01-01T00:11:56.589Z,51.86
2017-01-01T00:12:56.565Z,51.86
2017-01-01T00:13:56.559Z,52.04
2017-01-01T00:14:56.532Z,51.95
2017-01-01T00:15:56.515Z,52.04
2017-01-01T00:16:56.501Z,51.95
2017-01-01T00:17:56.489Z,52.14
2017-01-01T00:18:56.471Z,51.86
2017-01-01T00:19:56.444Z,51.95
2017-01-01T00:20:56.438Z,51.86
2017-01-01T00:21:56.410Z,51.95
2017-01-01T00:22:56.399Z,52.04
2017-01-01T00:23:56.385Z,52.04
2017-01-01T00:24:56.364Z,52.04
2017-01-01T00:25:56.351Z,51.95
2017-01-01T00:26:56.332Z,52.14
2017-01-01T00:27:56.306Z,52.14
2017-01-01T00:28:56.287Z,52.14
2017-01-01T00:29:56.282Z,52.04
2017-01-01T00:30:56.252Z,52.23
2017-01-01T00:31:56.244Z,51.57
2017-01-01T00:32:56.217Z,51.67
2017-01-01T00:33:56.204Z,51.67
2017-01-01T00:34:56.190Z,51.76
2017-01-01T00:35:56.164Z,51.67
2017-01-01T00:36:56.151Z,51.76
2017-01-01T00:37:56.136Z,51.86
2017-01-01T00:38:56.110Z,51.86
2017-01-01T00:39:56.099Z,51.86
2017-01-01T00:40:56.081Z,51.95
2017-01-01T00:41:56.062Z,51.67
2017-01-01T00:42:56.051Z,51.76
2017-01-01T00:43:56.025Z,51.76
2017-01-01T00:44:56.002Z,51.57
2017-01-01T00:45:55.988Z,51.57
2017-01-01T00:46:55.972Z,51.2
2017-01-01T00:47:55.955Z,51.29
2017-01-01T00:48:55.933Z,51.39
2017-01-01T00:49:55.926Z,51.39
2017-01-01T00:50:55.899Z,51.57
2017-01-01T00:51:55.884Z,51.2
2017-01-01T00:52:55.872Z,51.2
2017-01-01T00:53:55.848Z,51.29
2017-01-01T00:54:55.828Z,51.2
2017-01-01T00:55:55.819Z,51.29
2017-01-01T00:56:55.802Z,51.39
2017-01-01T00:57:55.778Z,51.29
2017-01-01T00:58:55.764Z,51.2
2017-01-01T00:59:55.744Z,50.91
2017-01-01T01:00:55.722Z,51.01
2017-01-01T01:01:55.706Z,51.01
2017-01-01T01:02:55.686Z,51.01
2017-01-01T01:03:55.666Z,51.01
2017-01-01T01:04:55.656Z,51.01
2017-01-01T01:05:55.637Z,51.1
2017-01-01T01:06:55.619Z,51.1
2017-01-01T01:07:55.600Z,51.2
2017-01-01T01:08:55.584Z,51.1
2017-01-01T01:09:55.569Z,51.1
2017-01-01T01:10:55.550Z,51.2
2017-01-01T01:11:55.529Z,51.2
2017-01-01T01:12:55.512Z,51.29
2017-01-01T01:13:55.498Z,51.29
2017-01-01T01:14:55.475Z,51.2
2017-01-01T01:15:55.455Z,51.29
2017-01-01T01:16:55.436Z,51.2
2017-01-01T01:17:55.420Z,50.91
2017-01-01T01:18:55.401Z,51.1
2017-01-01T01:19:55.392Z,51.01
2017-01-01T01:20:55.360Z,51.1
2017-01-01T01:21:55.351Z,51.01
2017-01-01T01:22:55.333Z,50.82
2017-01-01T01:23:55.315Z,50.91
2017-01-01T01:24:55.299Z,50.72
2017-01-01T01:25:55.270Z,50.72
2017-01-01T01:26:55.251Z,50.63
2017-01-01T01:27:55.234Z,50.63
2017-01-01T01:28:55.221Z,50.63
2017-01-01T01:29:55.197Z,50.63
2017-01-01T01:30:55.187Z,50.82
2017-01-01T01:31:55.169Z,50.82
2017-01-01T01:32:55.150Z,50.82
2017-01-01T01:33:55.132Z,50.72
2017-01-01T01:34:55.106Z,50.53
2017-01-01T01:35:55.093Z,50.82
2017-01-01T01:36:55.067Z,50.72
2017-01-01T01:37:55.051Z,50.72
2017-01-01T01:38:55.033Z,50.82
2017-01-01T01:39:55.022Z,50.63
2017-01-01T01:40:54.999Z,50.63
2017-01-01T01:41:54.985Z,50.63
2017-01-01T01:42:54.959Z,50.63
2017-01-01T01:43:54.947Z,50.63
2017-01-01T01:44:54.930Z,50.44
2017-01-01T01:45:54.905Z,50.63
2017-01-01T01:46:54.892Z,50.72
2017-01-01T01:47:54.873Z,50.72
2017-01-01T01:48:54.847Z,50.35
2017-01-01T01:49:54.845Z,50.72
2017-01-01T01:50:54.814Z,50.53
2017-01-01T01:51:54.791Z,50.35
2017-01-01T01:52:54.775Z,50.53
2017-01-01T01:53:54.755Z,50.53
2017-01-01T01:54:54.736Z,50.53
2017-01-01T01:55:54.731Z,50.44
2017-01-01T01:56:54.711Z,50.53
2017-01-01T01:57:54.678Z,50.53
2017-01-01T01:58:54.659Z,50.44
2017-01-01T01:59:54.643Z,50.35
2017-01-01T02:00:54.623Z,50.35
2017-01-01T02:01:54.610Z,50.25
2017-01-01T02:02:54.591Z,50.35
2017-01-01T02:03:54.567Z,50.35
2017-01-01T02:04:54.548Z,50.35
2017-01-01T02:05:54.535Z,50.44
2017-01-01T02:06:54.510Z,50.35
2017-01-01T02:07:54.494Z,50.44
2017-01-01T02:08:54.481Z,50.44
2017-01-01T02:09:54.463Z,50.35
2017-01-01T02:10:54.442Z,50.44
2017-01-01T02:11:54.417Z,50.44
2017-01-01T02:12:54.401Z,50.44
2017-01-01T02:13:54.382Z,50.35
2017-01-01T02:14:54.373Z,50.35
2017-01-01T02:15:54.343Z,50.35
2017-01-01T02:16:54.326Z,50.35
2017-01-01T02:17:54.310Z,50.25
2017-01-01T02:18:54.284Z,50.44
2017-01-01T02:19:54.275Z,50.25
2017-01-01T02:20:54.247Z,50.25
2017-01-01T02:21:54.234Z,50.23
2017-01-01T02:22:54.219Z,50.13
2017-01-01T02:23:54.199Z,50.32
2017-01-01T02:24:54.174Z,50.04
2017-01-01T02:25:54.160Z,50.13
2017-01-01T02:26:54.169Z,50.04
2017-01-01T02:27:54.118Z,50.04
2017-01-01T02:28:54.107Z,49.94
2017-01-01T02:29:54.086Z,50.04
2017-01-01T02:30:54.057Z,50.23
2017-01-01T02:31:54.039Z,49.85
2017-01-01T02:32:54.020Z,50.23
2017-01-01T02:33:54.010Z,49.94
2017-01-01T02:34:53.991Z,49.94
2017-01-01T02:35:53.965Z,50.04
2017-01-01T02:36:53.944Z,50.32
2017-01-01T02:37:53.936Z,50.23
2017-01-01T02:38:53.916Z,49.85
2017-01-01T02:39:53.890Z,50.23
2017-01-01T02:40:53.877Z,49.85
2017-01-01T02:41:53.852Z,50.04
2017-01-01T02:42:53.835Z,49.85
2017-01-01T02:43:53.813Z,50.32
2017-01-01T02:44:53.796Z,50.04
2017-01-01T02:45:53.777Z,50.04
2017-01-01T02:46:53.757Z,49.94
2017-01-01T02:47:53.740Z,49.85
2017-01-01T02:48:53.717Z,49.94
2017-01-01T02:49:53.708Z,50.04
2017-01-01T02:50:53.686Z,50.23
2017-01-01T02:51:53.665Z,49.76
2017-01-01T02:52:53.638Z,50.23
2017-01-01T02:53:53.616Z,50.23
2017-01-01T02:54:53.598Z,49.76
2017-01-01T02:55:53.580Z,50.13
2017-01-01T02:56:53.568Z,50.04
2017-01-01T02:57:53.547Z,50.04
2017-01-01T02:58:53.523Z,50.04
2017-01-01T02:59:53.507Z,50.13
2017-01-01T03:00:53.490Z,49.94
2017-01-01T03:01:53.471Z,50.13
2017-01-01T03:02:53.452Z,50.04
2017-01-01T03:03:53.429Z,49.85
2017-01-01T03:04:53.408Z,50.04
2017-01-01T03:05:53.386Z,50.32
2017-01-01T03:06:53.365Z,50.13
2017-01-01T03:07:53.345Z,50.04
2017-01-01T03:08:53.326Z,50.04
2017-01-01T03:09:53.308Z,50.13
2017-01-01T03:10:53.293Z,50.13
2017-01-01T03:11:53.272Z,50.04
2017-01-01T03:12:53.244Z,49.94
2017-01-01T03:13:53.226Z,50.13
2017-01-01T03:14:53.211Z,50.23
2017-01-01T03:15:53.186Z,50.13
2017-01-01T03:16:53.170Z,50.13
2017-01-01T03:17:53.149Z,50.23
2017-01-01T03:18:53.131Z,50.32
2017-01-01T03:19:53.113Z,50.23
2017-01-01T03:20:53.089Z,50.23
2017-01-01T03:21:53.073Z,50.13
2017-01-01T03:22:53.048Z,50.23
2017-01-01T03:23:53.034Z,50.23
2017-01-01T03:24:53.014Z,50.04
2017-01-01T03:25:52.994Z,49.76
2017-01-01T03:26:52.969Z,50.13
2017-01-01T03:27:52.952Z,50.04
2017-01-01T03:28:52.936Z,49.94
2017-01-01T03:29:52.915Z,50.04
2017-01-01T03:30:52.895Z,49.94
2017-01-01T03:31:52.872Z,50.23
2017-01-01T03:32:52.848Z,50.23
2017-01-01T03:33:52.838Z,50.13
2017-01-01T03:34:52.816Z,50.23
2017-01-01T03:35:52.793Z,50.13
2017-01-01T03:36:52.780Z,49.85
2017-01-01T03:37:52.752Z,50.23
2017-01-01T03:38:52.730Z,49.94
2017-01-01T03:39:52.709Z,50.23
2017-01-01T03:40:52.702Z,50.13
2017-01-01T03:41:52.679Z,50.04
2017-01-01T03:42:52.657Z,49.94
2017-01-01T03:43:52.641Z,50.23
2017-01-01T03:44:52.617Z,50.13
2017-01-01T03:45:52.591Z,49.85
2017-01-01T03:46:52.582Z,50.32
2017-01-01T03:47:52.552Z,49.85
2017-01-01T03:48:52.538Z,50.13
2017-01-01T03:49:52.521Z,50.04
2017-01-01T03:50:52.489Z,50.13
2017-01-01T03:51:52.471Z,50.42
2017-01-01T03:52:52.449Z,50.32
2017-01-01T03:53:52.432Z,50.32
2017-01-01T03:54:52.410Z,50.32
2017-01-01T03:55:52.394Z,50.32
2017-01-01T03:56:52.375Z,50.32
2017-01-01T03:57:52.353Z,50.42
2017-01-01T03:58:52.341Z,50.42
2017-01-01T03:59:52.314Z,50.32
2017-01-01T04:00:52.300Z,50.42
2017-01-01T04:01:52.275Z,50.32
2017-01-01T04:02:52.249Z,50.32
2017-01-01T04:03:52.235Z,50.32
2017-01-01T04:04:52.216Z,50.42
2017-01-01T04:05:52.192Z,50.32
2017-01-01T04:06:52.175Z,50.23
2017-01-01T04:07:52.156Z,50.42
2017-01-01T04:08:52.136Z,50.32
2017-01-01T04:09:52.117Z,50.23
2017-01-01T04:10:52.089Z,50.32
2017-01-01T04:11:52.085Z,50.32
2017-01-01T04:12:52.051Z,50.51
2017-01-01T04:13:52.031Z,50.51
2017-01-01T04:14:52.015Z,50.42
2017-01-01T04:15:51.998Z,50.32
2017-01-01T04:16:51.978Z,50.42
2017-01-01T04:17:51.951Z,50.51
2017-01-01T04:18:51.936Z,50.42
2017-01-01T04:19:51.918Z,50.51
2017-01-01T04:20:51.893Z,50.42
2017-01-01T04:21:51.878Z,50.51
2017-01-01T04:22:51.858Z,50.42
2017-01-01T04:23:51.834Z,50.42
2017-01-01T04:24:51.816Z,50.42
2017-01-01T04:25:51.795Z,50.51
2017-01-01T04:26:51.777Z,50.42
2017-01-01T04:27:51.748Z,50.42
2017-01-01T04:28:51.738Z,50.51
2017-01-01T04:29:51.718Z,50.6
2017-01-01T04:30:51.689Z,50.42
2017-01-01T04:31:51.670Z,50.42
2017-01-01T04:32:51.646Z,50.51
2017-01-01T04:33:51.637Z,50.42
2017-01-01T04:34:51.616Z,50.42
2017-01-01T04:35:51.588Z,50.42
2017-01-01T04:36:51.574Z,50.51
2017-01-01T04:37:51.555Z,50.32
2017-01-01T04:38:51.534Z,50.51
2017-01-01T04:39:51.520Z,50.32
2017-01-01T04:40:51.490Z,50.51
2017-01-01T04:41:51.478Z,50.32
2017-01-01T04:42:51.450Z,50.32
2017-01-01T04:43:51.447Z,50.42
2017-01-01T04:44:51.421Z,50.32
2017-01-01T04:45:51.392Z,50.42
2017-01-01T04:46:51.374Z,50.32
2017-01-01T04:47:51.357Z,50.42
2017-01-01T04:48:51.332Z,50.7
2017-01-01T04:49:51.316Z,50.32
2017-01-01T04:50:51.294Z,50.6
2017-01-01T04:51:51.276Z,50.32
2017-01-01T04:52:51.254Z,50.42
2017-01-01T04:53:51.239Z,50.32
2017-01-01T04:54:51.220Z,50.7
2017-01-01T04:55:51.199Z,50.7
2017-01-01T04:56:51.168Z,50.6
2017-01-01T04:57:51.156Z,50.6
2017-01-01T04:58:51.131Z,50.7
2017-01-01T04:59:51.122Z,50.42
2017-01-01T05:00:51.102Z,50.7
2017-01-01T05:01:51.072Z,50.7
2017-01-01T05:02:51.054Z,50.42
2017-01-01T05:03:51.028Z,50.42
2017-01-01T05:04:51.016Z,50.7
2017-01-01T05:05:50.991Z,50.42
2017-01-01T05:06:50.980Z,50.6
2017-01-01T05:07:50.958Z,50.6
2017-01-01T05:08:50.931Z,50.6
2017-01-01T05:09:50.920Z,50.6
2017-01-01T05:10:50.899Z,50.51
2017-01-01T05:11:50.879Z,50.6
2017-01-01T05:12:50.854Z,50.6
2017-01-01T05:13:50.836Z,50.51
2017-01-01T05:14:50.811Z,50.6
2017-01-01T05:15:50.801Z,50.6
2017-01-01T05:16:50.776Z,50.6
2017-01-01T05:17:50.755Z,50.6
2017-01-01T05:18:50.736Z,50.42
2017-01-01T05:19:50.708Z,50.6
2017-01-01T05:20:50.693Z,50.6
2017-01-01T05:21:50.772Z,50.51
2017-01-01T05:22:50.649Z,50.51
2017-01-01T05:23:50.632Z,50.42
2017-01-01T05:24:50.614Z,50.7
2017-01-01T05:25:50.588Z,50.42
2017-01-01T05:26:50.569Z,50.51
2017-01-01T05:27:50.555Z,50.51
2017-01-01T05:28:50.534Z,50.51
2017-01-01T05:29:50.516Z,50.42
2017-01-01T05:30:50.486Z,50.6
2017-01-01T05:31:50.468Z,50.7
2017-01-01T05:32:50.452Z,50.42
2017-01-01T05:33:50.430Z,50.7
2017-01-01T05:34:50.409Z,50.7
2017-01-01T05:35:50.386Z,50.42
2017-01-01T05:36:50.373Z,50.79
2017-01-01T05:37:50.349Z,50.79
2017-01-01T05:38:50.338Z,50.58
2017-01-01T05:39:50.702Z,50.58
2017-01-01T05:40:50.288Z,50.67
2017-01-01T05:41:50.269Z,50.67
2017-01-01T05:42:50.244Z,50.67
2017-01-01T05:43:50.230Z,50.39
2017-01-01T05:44:50.205Z,50.58
2017-01-01T05:45:50.192Z,50.58
2017-01-01T05:46:50.172Z,50.58
2017-01-01T05:47:50.151Z,50.6
2017-01-01T05:48:50.126Z,50.48
2017-01-01T05:49:50.100Z,50.58
2017-01-01T05:50:50.092Z,50.67
2017-01-01T05:51:50.069Z,50.58
2017-01-01T05:52:50.050Z,50.58
2017-01-01T05:53:50.057Z,50.58
2017-01-01T05:54:50.007Z,50.58
2017-01-01T05:55:49.978Z,50.58
2017-01-01T05:56:49.959Z,50.58
2017-01-01T05:57:49.943Z,50.48
2017-01-01T05:58:49.926Z,50.48
2017-01-01T05:59:49.895Z,50.58
2017-01-01T06:00:49.878Z,50.67
2017-01-01T06:01:49.860Z,50.58
2017-01-01T06:02:49.836Z,50.67
2017-01-01T06:03:49.838Z,50.48
2017-01-01T06:04:49.803Z,50.58
2017-01-01T06:05:49.771Z,50.67
2017-01-01T06:06:49.755Z,50.58
2017-01-01T06:07:49.733Z,50.58
2017-01-01T06:08:49.714Z,50.58
2017-01-01T06:09:49.689Z,50.58
2017-01-01T06:10:49.673Z,50.67
2017-01-01T06:11:49.660Z,50.76
2017-01-01T06:12:49.634Z,50.58
2017-01-01T06:13:49.614Z,50.48
2017-01-01T06:14:49.598Z,50.67
2017-01-01T06:15:49.573Z,50.76
2017-01-01T06:16:49.546Z,50.48
2017-01-01T06:17:49.534Z,50.76
2017-01-01T06:18:49.510Z,50.67
2017-01-01T06:19:49.487Z,50.58
2017-01-01T06:20:49.463Z,50.76
2017-01-01T06:21:49.827Z,50.76
2017-01-01T06:22:49.429Z,50.48
2017-01-01T06:23:49.406Z,50.48
2017-01-01T06:24:49.383Z,50.67
2017-01-01T06:25:49.393Z,50.67
2017-01-01T06:26:49.347Z,50.67
2017-01-01T06:27:49.327Z,50.76
2017-01-01T06:28:49.308Z,50.76
2017-01-01T06:29:49.285Z,50.67
2017-01-01T06:30:49.264Z,50.67
2017-01-01T06:31:49.242Z,50.86
2017-01-01T06:32:49.227Z,50.58
2017-01-01T06:33:49.200Z,50.76
2017-01-01T06:34:49.187Z,50.76
2017-01-01T06:35:49.162Z,50.76
2017-01-01T06:36:49.135Z,50.76
2017-01-01T06:37:49.122Z,50.86
2017-01-01T06:38:49.099Z,50.76
2017-01-01T06:39:49.076Z,50.76
2017-01-01T06:40:49.063Z,50.58
2017-01-01T06:41:49.032Z,50.67
2017-01-01T06:42:49.023Z,50.58
2017-01-01T06:43:48.993Z,50.76
2017-01-01T06:44:48.979Z,50.76
2017-01-01T06:45:48.953Z,50.76
2017-01-01T06:46:48.929Z,50.58
2017-01-01T06:47:48.911Z,50.76
2017-01-01T06:48:48.888Z,50.67
2017-01-01T06:49:48.872Z,50.58
2017-01-01T06:50:48.854Z,50.58
2017-01-01T06:51:48.838Z,50.58
2017-01-01T06:52:48.815Z,50.67
2017-01-01T06:53:48.795Z,50.76
2017-01-01T06:54:48.763Z,50.67
2017-01-01T06:55:48.749Z,50.67
2017-01-01T06:56:48.736Z,50.67
2017-01-01T06:57:48.709Z,50.67
2017-01-01T06:58:48.684Z,50.67
2017-01-01T06:59:48.665Z,50.58
2017-01-01T07:00:48.651Z,50.67
2017-01-01T07:01:48.632Z,50.67
2017-01-01T07:02:48.612Z,50.58
2017-01-01T07:03:48.611Z,50.67
2017-01-01T07:04:48.560Z,50.67
2017-01-01T07:05:48.540Z,50.79
2017-01-01T07:06:48.522Z,50.7
2017-01-01T07:07:48.505Z,50.79
2017-01-01T07:08:48.482Z,50.79
2017-01-01T07:09:48.457Z,50.79
2017-01-01T07:10:48.448Z,50.7
2017-01-01T07:11:48.426Z,50.79
2017-01-01T07:12:48.405Z,50.89
2017-01-01T07:13:48.382Z,50.79
2017-01-01T07:14:48.368Z,50.79
2017-01-01T07:15:48.367Z,50.89
2017-01-01T07:16:48.317Z,50.89
2017-01-01T07:17:48.295Z,50.89
2017-01-01T07:18:48.281Z,50.89
2017-01-01T07:19:48.266Z,50.89
2017-01-01T07:20:48.241Z,50.79
2017-01-01T07:21:48.224Z,50.89
2017-01-01T07:22:48.192Z,50.89
2017-01-01T07:23:48.183Z,50.89
2017-01-01T07:24:48.157Z,51.07
2017-01-01T07:25:48.133Z,50.89
2017-01-01T07:26:48.119Z,50.89
2017-01-01T07:27:48.095Z,50.89
2017-01-01T07:28:48.078Z,50.79
2017-01-01T07:29:48.054Z,50.89
2017-01-01T07:30:48.031Z,50.89
2017-01-01T07:31:48.019Z,50.89
2017-01-01T07:32:47.996Z,50.79
2017-01-01T07:33:47.976Z,50.79
2017-01-01T07:34:47.953Z,51.17
2017-01-01T07:35:47.933Z,51.26
2017-01-01T07:36:47.912Z,50.98
2017-01-01T07:37:47.897Z,51.07
2017-01-01T07:38:47.877Z,51.17
2017-01-01T07:39:47.854Z,50.98
2017-01-01T07:40:47.833Z,51.07
2017-01-01T07:41:47.811Z,51.26
2017-01-01T07:42:47.794Z,51.26
2017-01-01T07:43:47.771Z,51.36
2017-01-01T07:44:47.760Z,51.17
2017-01-01T07:45:47.740Z,51.17
2017-01-01T07:46:47.717Z,50.98
2017-01-01T07:47:47.700Z,51.26
2017-01-01T07:48:47.671Z,51.17
2017-01-01T07:49:47.659Z,51.17
2017-01-01T07:50:47.636Z,51.26
2017-01-01T07:51:47.612Z,51.17
2017-01-01T07:52:47.592Z,51.26
2017-01-01T07:53:47.583Z,51.36
2017-01-01T07:54:47.560Z,51.1
2017-01-01T07:55:47.536Z,51.26
2017-01-01T07:56:47.517Z,51.2
2017-01-01T07:57:47.494Z,51.26
2017-01-01T07:58:47.481Z,51.2
2017-01-01T07:59:47.461Z,51.2
2017-01-01T08:00:47.434Z,51.29
2017-01-01T08:01:47.428Z,51.1
2017-01-01T08:02:47.396Z,51.01
2017-01-01T08:03:47.385Z,50.91
2017-01-01T08:04:47.358Z,51.29
2017-01-01T08:05:47.337Z,51.2
2017-01-01T08:06:47.325Z,51.1
2017-01-01T08:07:47.305Z,51.2
2017-01-01T08:08:47.288Z,51.1
2017-01-01T08:09:47.268Z,51.01
2017-01-01T08:10:47.238Z,51.01
2017-01-01T08:11:47.226Z,51.01
2017-01-01T08:12:47.212Z,51.2
2017-01-01T08:13:47.191Z,50.91
2017-01-01T08:14:47.546Z,50.91
2017-01-01T08:15:47.149Z,50.91
2017-01-01T08:16:47.147Z,50.82
2017-01-01T08:17:47.110Z,50.72
2017-01-01T08:18:47.090Z,50.82
2017-01-01T08:19:47.061Z,50.91
2017-01-01T08:20:47.051Z,50.82
2017-01-01T08:21:47.029Z,50.82
2017-01-01T08:22:47.004Z,50.72
2017-01-01T08:23:47.171Z,50.72
2017-01-01T08:24:47.167Z,50.72
2017-01-01T08:25:46.953Z,50.63
2017-01-01T08:26:46.924Z,50.72
2017-01-01T08:27:46.909Z,50.72
2017-01-01T08:28:46.891Z,50.72
2017-01-01T08:29:46.874Z,50.82
2017-01-01T08:30:46.841Z,50.72
2017-01-01T08:31:46.826Z,50.72
2017-01-01T08:32:46.805Z,50.63
2017-01-01T08:33:46.789Z,50.72
2017-01-01T08:34:46.770Z,50.63
2017-01-01T08:35:46.742Z,50.91
2017-01-01T08:36:46.728Z,50.82
2017-01-01T08:37:46.711Z,50.72
2017-01-01T08:38:46.692Z,50.53
2017-01-01T08:39:46.664Z,50.63
2017-01-01T08:40:46.647Z,50.82
2017-01-01T08:41:46.629Z,50.82
2017-01-01T08:42:46.603Z,50.82
2017-01-01T08:43:46.600Z,50.63
2017-01-01T08:44:46.570Z,50.72
2017-01-01T08:45:46.544Z,50.72
2017-01-01T08:46:46.525Z,50.82
2017-01-01T08:47:46.513Z,50.82
2017-01-01T08:48:46.491Z,50.82
2017-01-01T08:49:46.468Z,50.72
2017-01-01T08:50:46.459Z,50.72
2017-01-01T08:51:46.433Z,50.63
2017-01-01T08:52:46.411Z,50.72
2017-01-01T08:53:46.394Z,50.82
2017-01-01T08:54:46.409Z,50.63
2017-01-01T08:55:46.359Z,50.72
2017-01-01T08:56:46.337Z,50.75
2017-01-01T08:57:46.319Z,50.72
2017-01-01T08:58:46.301Z,50.63
2017-01-01T08:59:46.274Z,50.63
2017-01-01T09:00:46.259Z,50.63
2017-01-01T09:01:46.244Z,50.63
2017-01-01T09:02:46.221Z,50.53
2017-01-01T09:03:46.199Z,50.63
2017-01-01T09:04:46.186Z,50.65
2017-01-01T09:05:46.156Z,50.63
2017-01-01T09:06:46.153Z,50.65
2017-01-01T09:07:46.122Z,50.65
2017-01-01T09:08:46.103Z,50.65
2017-01-01T09:09:46.081Z,50.46
2017-01-01T09:10:46.068Z,50.56
2017-01-01T09:11:46.050Z,50.65
2017-01-01T09:12:46.030Z,50.65
2017-01-01T09:13:46.006Z,50.65
2017-01-01T09:14:45.986Z,50.65
2017-01-01T09:15:45.966Z,50.65
2017-01-01T09:16:45.948Z,50.65
2017-01-01T09:17:45.933Z,50.65
2017-01-01T09:18:46.122Z,50.65
2017-01-01T09:19:46.095Z,50.68
2017-01-01T09:20:45.878Z,50.78
2017-01-01T09:21:45.856Z,50.56
2017-01-01T09:22:45.845Z,50.56
2017-01-01T09:23:45.827Z,50.27
2017-01-01T09:24:45.810Z,50.75
2017-01-01T09:25:45.793Z,50.75
2017-01-01T09:26:45.771Z,50.68
2017-01-01T09:27:45.760Z,50.68
2017-01-01T09:28:45.733Z,50.68
2017-01-01T09:29:45.718Z,50.68
2017-01-01T09:30:45.694Z,50.4
2017-01-01T09:31:45.682Z,50.68
2017-01-01T09:32:45.656Z,50.52
2017-01-01T09:33:45.645Z,50.59
2017-01-01T09:34:45.624Z,50.4
2017-01-01T09:35:45.606Z,50.27
2017-01-01T09:36:45.590Z,50.56
2017-01-01T09:37:45.568Z,50.59
2017-01-01T09:38:45.556Z,50.59
2017-01-01T09:39:45.538Z,50.49
2017-01-01T09:40:45.531Z,50.68
2017-01-01T09:41:45.506Z,50.61
2017-01-01T09:42:45.487Z,50.52
2017-01-01T09:43:45.473Z,50.42
2017-01-01T09:44:45.451Z,50.21
2017-01-01T09:45:45.440Z,50.49
2017-01-01T09:46:45.416Z,50.59
2017-01-01T09:47:45.392Z,50.4
2017-01-01T09:48:45.385Z,50.21
2017-01-01T09:49:45.368Z,50.21
2017-01-01T09:50:45.344Z,49.99
2017-01-01T09:51:45.330Z,50.02
2017-01-01T09:52:45.309Z,50.37
2017-01-01T09:53:45.294Z,50.3
2017-01-01T09:54:45.281Z,50.21
2017-01-01T09:55:45.261Z,50.3
2017-01-01T09:56:45.246Z,49.92
2017-01-01T09:57:45.232Z,50.11
2017-01-01T09:58:45.587Z,50.3
2017-01-01T09:59:45.193Z,50.11
2017-01-01T10:00:45.166Z,50.21
2017-01-01T10:01:45.155Z,50.3
2017-01-01T10:02:45.143Z,50.11
2017-01-01T10:03:45.112Z,50.02
2017-01-01T10:04:45.094Z,50.3
2017-01-01T10:05:45.090Z,50.4
2017-01-01T10:06:45.061Z,50.21
2017-01-01T10:07:45.049Z,50.3
2017-01-01T10:08:45.028Z,50.42
2017-01-01T10:09:45.019Z,50.23
2017-01-01T10:10:44.993Z,50.42
2017-01-01T10:11:44.987Z,50.16
2017-01-01T10:12:44.966Z,50.54
2017-01-01T10:13:44.949Z,50.35
2017-01-01T10:14:44.922Z,50.57
2017-01-01T10:15:44.914Z,50.57
2017-01-01T10:16:44.898Z,50.28
2017-01-01T10:17:44.875Z,50.26
2017-01-01T10:18:44.867Z,50.14
2017-01-01T10:19:44.845Z,49.85
2017-01-01T10:20:44.831Z,49.66
2017-01-01T10:21:44.824Z,49.66
2017-01-01T10:22:44.796Z,50.04
2017-01-01T10:23:44.781Z,50.04
2017-01-01T10:24:44.761Z,50.07
2017-01-01T10:25:44.746Z,50.04
2017-01-01T10:26:44.730Z,49.95
2017-01-01T10:27:44.714Z,49.95
2017-01-01T10:28:44.695Z,49.66
2017-01-01T10:29:44.679Z,49.26
2017-01-01T10:30:44.669Z,49.64
2017-01-01T10:31:44.646Z,49.73
2017-01-01T10:32:44.627Z,49.54
2017-01-01T10:33:44.661Z,49.54
2017-01-01T10:34:44.597Z,49.43
2017-01-01T10:35:44.578Z,49.24
2017-01-01T10:36:44.557Z,49.64
2017-01-01T10:37:44.540Z,49.64
2017-01-01T10:38:44.531Z,49.64
2017-01-01T10:39:44.507Z,49.64
2017-01-01T10:40:44.498Z,49.48
2017-01-01T10:41:44.481Z,49.73
2017-01-01T10:42:44.455Z,49.48
2017-01-01T10:43:44.446Z,49.45
2017-01-01T10:44:44.434Z,49.54
2017-01-01T10:45:44.407Z,49.76
2017-01-01T10:46:44.392Z,49.85
2017-01-01T10:47:44.370Z,49.48
2017-01-01T10:48:44.351Z,49.38
2017-01-01T10:49:44.346Z,49.45
2017-01-01T10:50:44.332Z,49.35
2017-01-01T10:51:44.307Z,49.35
2017-01-01T10:52:44.303Z,49.26
2017-01-01T10:53:44.267Z,49.26
2017-01-01T10:54:44.261Z,49.35
2017-01-01T10:55:44.236Z,49.26
2017-01-01T10:56:44.219Z,49.45
2017-01-01T10:57:44.200Z,49.35
2017-01-01T10:58:44.194Z,49.35
2017-01-01T10:59:44.161Z,49.26
2017-01-01T11:00:44.154Z,49.29
2017-01-01T11:01:44.128Z,49.29
2017-01-01T11:02:44.113Z,49.38
2017-01-01T11:03:44.106Z,49.29
2017-01-01T11:04:44.086Z,49.38
2017-01-01T11:05:44.070Z,49.1
2017-01-01T11:06:44.050Z,49.01
2017-01-01T11:07:44.033Z,49.07
2017-01-01T11:08:44.018Z,49.16
2017-01-01T11:09:44.044Z,48.88
2017-01-01T11:10:43.979Z,48.97
2017-01-01T11:11:43.961Z,49.26
2017-01-01T11:12:43.940Z,49.38
2017-01-01T11:13:43.923Z,49.31
2017-01-01T11:14:43.911Z,49.41
2017-01-01T11:15:43.907Z,49.43
2017-01-01T11:16:43.874Z,49.24
2017-01-01T11:17:43.866Z,49.22
2017-01-01T11:18:43.840Z,49.31
2017-01-01T11:19:43.836Z,49.33
2017-01-01T11:20:43.814Z,49.33
2017-01-01T11:21:43.796Z,49.33
2017-01-01T11:22:43.789Z,49.46
2017-01-01T11:23:43.771Z,48.96
2017-01-01T11:24:43.756Z,49.03
2017-01-01T11:25:43.740Z,49.12
2017-01-01T11:26:43.717Z,48.93
2017-01-01T11:27:43.712Z,49.1
2017-01-01T11:28:43.690Z,48.82
2017-01-01T11:29:43.677Z,49.1
2017-01-01T11:30:43.662Z,49.12
2017-01-01T11:31:43.639Z,49.22
2017-01-01T11:32:43.623Z,49.22
2017-01-01T11:33:43.612Z,49.12
2017-01-01T11:34:43.594Z,49.43
2017-01-01T11:35:43.577Z,49.05
2017-01-01T11:36:43.560Z,48.96
2017-01-01T11:37:43.554Z,48.55
2017-01-01T11:38:43.529Z,48.63
2017-01-01T11:39:43.521Z,48.6
2017-01-01T11:40:43.502Z,48.5
2017-01-01T11:41:43.483Z,48.69
2017-01-01T11:42:43.472Z,48.97
2017-01-01T11:43:43.451Z,48.82
2017-01-01T11:44:43.433Z,48.91
2017-01-01T11:45:43.417Z,49.03
2017-01-01T11:46:43.399Z,48.84
2017-01-01T11:47:43.385Z,48.93
2017-01-01T11:48:43.751Z,48.93
2017-01-01T11:49:43.358Z,48.84
2017-01-01T11:50:43.336Z,49.12
2017-01-01T11:51:43.324Z,48.63
2017-01-01T11:52:43.302Z,48.63
2017-01-01T11:53:43.295Z,48.82
2017-01-01T11:54:43.272Z,48.82
2017-01-01T11:55:43.264Z,48.91
2017-01-01T11:56:43.243Z,48.93
2017-01-01T11:57:43.225Z,48.91
2017-01-01T11:58:43.208Z,48.84
2017-01-01T11:59:43.199Z,48.86
2017-01-01T12:00:43.232Z,49.05
2017-01-01T12:01:43.164Z,48.86
2017-01-01T12:02:43.148Z,48.74
2017-01-01T12:03:43.125Z,48.65
2017-01-01T12:04:43.111Z,48.63
2017-01-01T12:05:43.099Z,48.72
2017-01-01T12:06:43.081Z,48.63
2017-01-01T12:07:43.064Z,48.72
2017-01-01T12:08:43.047Z,48.72
2017-01-01T12:09:43.038Z,48.72
2017-01-01T12:10:43.015Z,48.72
2017-01-01T12:11:42.996Z,48.72
2017-01-01T12:12:42.992Z,48.63
2017-01-01T12:13:42.968Z,48.82
2017-01-01T12:14:42.948Z,48.72
2017-01-01T12:15:42.942Z,48.72
2017-01-01T12:16:42.918Z,48.72
2017-01-01T12:17:42.909Z,49.01
2017-01-01T12:18:42.889Z,48.88
2017-01-01T12:19:42.874Z,48.79
2017-01-01T12:20:42.859Z,48.5
2017-01-01T12:21:42.836Z,48.63
2017-01-01T12:22:42.824Z,48.63
2017-01-01T12:23:42.809Z,48.72
2017-01-01T12:24:42.785Z,48.88
2017-01-01T12:25:42.775Z,48.88
2017-01-01T12:26:42.754Z,48.69
2017-01-01T12:27:42.742Z,48.69
2017-01-01T12:28:42.715Z,48.88
2017-01-01T12:29:42.705Z,48.5
2017-01-01T12:30:42.686Z,48.76
2017-01-01T12:31:42.667Z,48.69
2017-01-01T12:32:42.651Z,48.69
2017-01-01T12:33:42.634Z,48.88
2017-01-01T12:34:42.614Z,48.79
2017-01-01T12:35:42.604Z,48.79
2017-01-01T12:36:42.575Z,48.79
2017-01-01T12:37:42.562Z,48.79
2017-01-01T12:38:42.545Z,48.69
2017-01-01T12:39:42.525Z,48.6
2017-01-01T12:40:42.515Z,48.79
2017-01-01T12:41:42.499Z,48.69
2017-01-01T12:42:42.471Z,48.88
2017-01-01T12:43:42.456Z,48.86
2017-01-01T12:44:42.439Z,48.67
2017-01-01T12:45:42.429Z,48.79
2017-01-01T12:46:42.399Z,48.86
2017-01-01T12:47:42.386Z,48.67
2017-01-01T12:48:42.369Z,48.6
2017-01-01T12:49:42.352Z,48.6
2017-01-01T12:50:42.332Z,48.69
2017-01-01T12:51:42.310Z,48.69
2017-01-01T12:52:42.294Z,48.79
2017-01-01T12:53:42.279Z,48.69
2017-01-01T12:54:42.265Z,48.69
2017-01-01T12:55:42.249Z,48.69